General Leobardo C Ruiz International Airport
MMZC : now visible

Airfield :











YOU CAN JOIN US ON...

 
LOGIN :

Register | Disclaimer

   EN    FR    IT 

 









Legend :    VFR   Marginal VFR   IFR   Intensive IFR   Very Intensive IFR
Visi :
Ceiling :
>= 8 km
>= 3000ft
5 to 8 km
1000 to 3000 ft
1500m to 5 km
500 to 1000 ft
800 to 1500m
200 to 500 ft
< 800m
< 200 ft
Symbols :   Thunderstorms  Fog  Heavy snow  Heavy precipitations  Wind > 20 kt






- Airport Elevation : 7141 ft
- IATA code : ZCL


MMZC - General Leobardo C Ruiz International

CURRENT METAR :
  • 242340Z E34010KT 10SM SCT040 SCT100 24/07 A3023 RMK 8/460

EXPIRED METARs :
  • 242241Z E35009KT 10SM SCT050TCU SCT100 25/08 A3023 RMK 8/260

TAF TAF MMZC
Valid from the 25 at 00:00 until the 26 at 06:00 UTC


242323Z 2500/2606 35010KT P6SM SCT050 BKN100 TX25/2521Z TN14/2512Z
BECMG 2504/2505 04015KT
FM251800 03015G25KT P6SM BKN050
BECMG 2603/2604 03005KT
MMFR FIR / North America



MET'MAP, your aeronautical weather chart ! - Copyright ORBIFLY December 2007 - Disclaimer

ORBIFLY MET'MAP TEAM :

Programming & Development : Alexandra Zaïnal
Original concept : Baudouin d'Aumeries
Technical & hardware support : Manuel Goepfert
Assistance : Marc-Olivier Méhu




SOURCES & CREDITS :

   NOAA       Earth
Advisory